Terminal Aerodrome Forecast
Issued by NWS

Home | Current Version | Previous Version | Text Only | Print | Product List | Glossary On
Versions: 1 2 3 4 5 6 7 8 9 10 11 12 13 14
000
FTUS41 KCLE 031736
TAFFDY
TAF
KFDY 031736Z 0318/0418 25010KT P6SM SCT050
     FM032000 26006KT P6SM VCTS BKN050CB
     FM040200 VRB03KT P6SM SCT100
     FM040800 VRB03KT 4SM BR SCT100
     FM041500 21005KT P6SM SCT045=

USA.gov is the U.S. government's official web portal to all federal, state and local government web resources and services.